BAW612 EGLL-LIRP
Flight info
| Callsign | BAW612 |
|---|---|
| Flight time | 1h 47m |
| Altitude | 35000 |
| Route | MODMI M185 MID L612 BOGNA UL612 VEULE DCT TEPRI DCT POGZI DCT GELTA DCT LUVAL DCT SHARA DCT DEVDI DCT ODINA DCT SRN DCT ROBAS DCT OSBUL DCT EKPAL DCT MIVKI |
| Aircraft | A320/M-SDE3FGHIRWY/LB1 |
Departure
| Time | 2026-05-07 10:49 |
|---|---|
| Airport | London Heathrow Airport (EGLL) |
Arrival
| Time | 2026-05-07 12:37 |
|---|---|
| Airport | Pisa International Airport (LIRP) |
| Time | Latitude | Longitude | Altitude | Speed | Heading |
|---|---|---|---|---|---|
| 2026-05-07 10:17 | 51.46930 | -0.48715 | 86 ft | 0 kts | 359° |
| 2026-05-07 10:42 | 51.46924 | -0.48715 | 86 ft | 4 kts | 359° |
| 2026-05-07 10:42 | 51.46899 | -0.48715 | 88 ft | 2 kts | 359° |
| 2026-05-07 10:43 | 51.46881 | -0.48718 | 88 ft | 4 kts | 58° |
| 2026-05-07 10:43 | 51.46876 | -0.48754 | 87 ft | 4 kts | 89° |
| 2026-05-07 10:43 | 51.46876 | -0.48794 | 86 ft | 1 kts | 89° |
| 2026-05-07 10:43 | 51.46876 | -0.48795 | 86 ft | 0 kts | 89° |
| 2026-05-07 10:46 | 51.46871 | -0.48768 | 89 ft | 4 kts | 124° |
| 2026-05-07 10:47 | 51.46824 | -0.48749 | 86 ft | 10 kts | 180° |
| 2026-05-07 10:47 | 51.46748 | -0.48749 | 86 ft | 12 kts | 180° |
| 2026-05-07 10:47 | 51.46682 | -0.48749 | 86 ft | 9 kts | 179° |
| 2026-05-07 10:47 | 51.46607 | -0.48762 | 88 ft | 12 kts | 198° |
| 2026-05-07 10:48 | 51.46519 | -0.48775 | 87 ft | 14 kts | 159° |
| 2026-05-07 10:48 | 51.46474 | -0.48639 | 86 ft | 16 kts | 89° |
| 2026-05-07 10:48 | 51.46474 | -0.48420 | 90 ft | 30 kts | 91° |
| 2026-05-07 10:48 | 51.46480 | -0.47720 | 86 ft | 95 kts | 89° |
| 2026-05-07 10:49 | 51.46484 | -0.46368 | 90 ft | 145 kts | 89° |
| 2026-05-07 10:49 | 51.46488 | -0.44561 | 298 ft | 168 kts | 90° |
| 2026-05-07 10:49 | 51.46473 | -0.42667 | 898 ft | 172 kts | 92° |
| 2026-05-07 10:49 | 51.46189 | -0.40791 | 1354 ft | 182 kts | 122° |
| 2026-05-07 10:50 | 51.45419 | -0.39034 | 1605 ft | 204 kts | 129° |
| 2026-05-07 10:50 | 51.44247 | -0.37587 | 1884 ft | 227 kts | 160° |
| 2026-05-07 10:50 | 51.42687 | -0.36717 | 2395 ft | 245 kts | 162° |
| 2026-05-07 10:50 | 51.41028 | -0.35912 | 3205 ft | 252 kts | 172° |
| 2026-05-07 10:51 | 51.39281 | -0.36084 | 4029 ft | 256 kts | 198° |
| 2026-05-07 10:51 | 51.37580 | -0.37013 | 4887 ft | 261 kts | 193° |
| 2026-05-07 10:51 | 51.35747 | -0.37039 | 5659 ft | 269 kts | 174° |
| 2026-05-07 10:51 | 51.33892 | -0.36556 | 6482 ft | 271 kts | 171° |
| 2026-05-07 10:52 | 51.32034 | -0.36022 | 7313 ft | 273 kts | 171° |
| 2026-05-07 10:52 | 51.30156 | -0.35498 | 8153 ft | 276 kts | 171° |
| 2026-05-07 10:52 | 51.28254 | -0.34977 | 8954 ft | 279 kts | 171° |
| 2026-05-07 10:52 | 51.26320 | -0.34475 | 9725 ft | 283 kts | 171° |
| 2026-05-07 10:53 | 51.24354 | -0.33985 | 10307 ft | 294 kts | 171° |
| 2026-05-07 10:53 | 51.22251 | -0.33468 | 10496 ft | 317 kts | 171° |
| 2026-05-07 10:53 | 51.20012 | -0.32832 | 10750 ft | 335 kts | 163° |
| 2026-05-07 10:53 | 51.17798 | -0.31550 | 11293 ft | 341 kts | 159° |
| 2026-05-07 10:54 | 51.15567 | -0.30201 | 11948 ft | 345 kts | 159° |
| 2026-05-07 10:54 | 51.13312 | -0.28836 | 12584 ft | 349 kts | 159° |
| 2026-05-07 10:54 | 51.11037 | -0.27456 | 13251 ft | 352 kts | 159° |
| 2026-05-07 10:54 | 51.08736 | -0.26059 | 13926 ft | 355 kts | 160° |
| 2026-05-07 10:55 | 51.06415 | -0.24649 | 14525 ft | 358 kts | 160° |
| 2026-05-07 10:55 | 51.04083 | -0.23231 | 15107 ft | 361 kts | 160° |
| 2026-05-07 10:55 | 51.01726 | -0.21800 | 15672 ft | 364 kts | 160° |
| 2026-05-07 10:55 | 50.99353 | -0.20362 | 16245 ft | 366 kts | 160° |
| 2026-05-07 10:56 | 50.96967 | -0.18919 | 16830 ft | 369 kts | 160° |
| 2026-05-07 10:56 | 50.94554 | -0.17464 | 17411 ft | 372 kts | 160° |
| 2026-05-07 10:56 | 50.92127 | -0.16003 | 17987 ft | 375 kts | 160° |
| 2026-05-07 10:56 | 50.89672 | -0.14530 | 18553 ft | 378 kts | 160° |
| 2026-05-07 10:57 | 50.87201 | -0.13045 | 19074 ft | 382 kts | 160° |
| 2026-05-07 10:57 | 50.84711 | -0.11547 | 19603 ft | 385 kts | 160° |
| 2026-05-07 10:57 | 50.82194 | -0.10036 | 20136 ft | 388 kts | 160° |
| 2026-05-07 10:57 | 50.79658 | -0.08516 | 20673 ft | 391 kts | 160° |
| 2026-05-07 10:58 | 50.77113 | -0.06992 | 21184 ft | 394 kts | 160° |
| 2026-05-07 10:58 | 50.74535 | -0.05451 | 21673 ft | 397 kts | 160° |
| 2026-05-07 10:58 | 50.71942 | -0.03905 | 22171 ft | 400 kts | 160° |
| 2026-05-07 10:58 | 50.69327 | -0.02348 | 22637 ft | 403 kts | 160° |
| 2026-05-07 10:59 | 50.66698 | -0.00781 | 23092 ft | 406 kts | 160° |
| 2026-05-07 10:59 | 50.64043 | 0.00800 | 23532 ft | 409 kts | 160° |
| 2026-05-07 10:59 | 50.61406 | 0.02366 | 23903 ft | 412 kts | 161° |
| 2026-05-07 10:59 | 50.58721 | 0.03960 | 24279 ft | 415 kts | 161° |
| 2026-05-07 11:00 | 50.56015 | 0.05568 | 24651 ft | 417 kts | 161° |
| 2026-05-07 11:00 | 50.53292 | 0.07183 | 25017 ft | 419 kts | 161° |
| 2026-05-07 11:00 | 50.50558 | 0.08801 | 25376 ft | 421 kts | 161° |
| 2026-05-07 11:00 | 50.47805 | 0.10424 | 25736 ft | 424 kts | 161° |
| 2026-05-07 11:01 | 50.45039 | 0.12046 | 26070 ft | 426 kts | 161° |
| 2026-05-07 11:01 | 50.42255 | 0.13677 | 26410 ft | 428 kts | 161° |
| 2026-05-07 11:01 | 50.39457 | 0.15320 | 26731 ft | 431 kts | 161° |
| 2026-05-07 11:01 | 50.36644 | 0.16978 | 27053 ft | 433 kts | 161° |
| 2026-05-07 11:02 | 50.33817 | 0.18644 | 27392 ft | 435 kts | 161° |
| 2026-05-07 11:02 | 50.30975 | 0.20318 | 27733 ft | 438 kts | 161° |
| 2026-05-07 11:02 | 50.28118 | 0.21993 | 28061 ft | 440 kts | 161° |
| 2026-05-07 11:02 | 50.25245 | 0.23671 | 28394 ft | 442 kts | 161° |
| 2026-05-07 11:03 | 50.22359 | 0.25358 | 28715 ft | 444 kts | 160° |
| 2026-05-07 11:03 | 50.19558 | 0.27446 | 29049 ft | 448 kts | 151° |
| 2026-05-07 11:03 | 50.16939 | 0.30086 | 29479 ft | 448 kts | 148° |
| 2026-05-07 11:03 | 50.14345 | 0.32770 | 29916 ft | 448 kts | 148° |
| 2026-05-07 11:04 | 50.11747 | 0.35444 | 30332 ft | 447 kts | 149° |
| 2026-05-07 11:04 | 50.09150 | 0.38105 | 30721 ft | 446 kts | 149° |
| 2026-05-07 11:04 | 50.06558 | 0.40750 | 31120 ft | 445 kts | 149° |
| 2026-05-07 11:04 | 50.03970 | 0.43385 | 31515 ft | 444 kts | 149° |
| 2026-05-07 11:05 | 50.01388 | 0.46015 | 31931 ft | 443 kts | 149° |
| 2026-05-07 11:05 | 49.98815 | 0.48638 | 32344 ft | 442 kts | 148° |
| 2026-05-07 11:05 | 49.96247 | 0.51258 | 32731 ft | 441 kts | 148° |
| 2026-05-07 11:05 | 49.93721 | 0.53838 | 33125 ft | 440 kts | 149° |
| 2026-05-07 11:06 | 49.91161 | 0.56444 | 33523 ft | 440 kts | 149° |
| 2026-05-07 11:06 | 49.88603 | 0.59037 | 33924 ft | 439 kts | 149° |
| 2026-05-07 11:06 | 49.86105 | 0.61761 | 34269 ft | 440 kts | 142° |
| 2026-05-07 11:06 | 49.83877 | 0.65018 | 34566 ft | 441 kts | 134° |
| 2026-05-07 11:07 | 49.81813 | 0.68538 | 34848 ft | 441 kts | 134° |
| 2026-05-07 11:07 | 49.79747 | 0.72058 | 35034 ft | 442 kts | 134° |
| 2026-05-07 11:07 | 49.75553 | 0.79166 | 35075 ft | 452 kts | 134° |
| 2026-05-07 11:08 | 49.71296 | 0.86349 | 35070 ft | 454 kts | 134° |
| 2026-05-07 11:08 | 49.67024 | 0.93537 | 35075 ft | 454 kts | 134° |
| 2026-05-07 11:09 | 49.62748 | 1.00724 | 35076 ft | 454 kts | 134° |
| 2026-05-07 11:09 | 49.58474 | 1.07897 | 35076 ft | 454 kts | 134° |
| 2026-05-07 11:10 | 49.54192 | 1.15050 | 35081 ft | 454 kts | 134° |
| 2026-05-07 11:10 | 49.49897 | 1.22198 | 35077 ft | 455 kts | 134° |
| 2026-05-07 11:11 | 49.45600 | 1.29325 | 35087 ft | 455 kts | 134° |
| 2026-05-07 11:11 | 49.41294 | 1.36448 | 35087 ft | 455 kts | 134° |
| 2026-05-07 11:12 | 49.36987 | 1.43569 | 35089 ft | 455 kts | 134° |
| 2026-05-07 11:12 | 49.32703 | 1.50634 | 35087 ft | 455 kts | 135° |
| 2026-05-07 11:13 | 49.28383 | 1.57720 | 35078 ft | 455 kts | 135° |
| 2026-05-07 11:13 | 49.24061 | 1.64777 | 35077 ft | 455 kts | 135° |
| 2026-05-07 11:14 | 49.19740 | 1.71844 | 35075 ft | 455 kts | 135° |
| 2026-05-07 11:14 | 49.15413 | 1.78898 | 35074 ft | 455 kts | 135° |
| 2026-05-07 11:15 | 49.11081 | 1.85941 | 35075 ft | 455 kts | 135° |
| 2026-05-07 11:15 | 49.06733 | 1.92965 | 35073 ft | 455 kts | 135° |
| 2026-05-07 11:16 | 49.02393 | 1.99990 | 35062 ft | 455 kts | 135° |
| 2026-05-07 11:16 | 48.98056 | 2.06992 | 35066 ft | 454 kts | 135° |
| 2026-05-07 11:17 | 48.94439 | 2.12793 | 35069 ft | 454 kts | 135° |
| 2026-05-07 11:17 | 48.90091 | 2.19755 | 35068 ft | 454 kts | 135° |
| 2026-05-07 11:18 | 48.85760 | 2.26675 | 35061 ft | 454 kts | 135° |
| 2026-05-07 11:18 | 48.81406 | 2.33630 | 35088 ft | 455 kts | 135° |
| 2026-05-07 11:19 | 48.77044 | 2.40591 | 35093 ft | 455 kts | 135° |
| 2026-05-07 11:19 | 48.72671 | 2.47528 | 35097 ft | 455 kts | 135° |
| 2026-05-07 11:20 | 48.68285 | 2.54450 | 35097 ft | 456 kts | 135° |
| 2026-05-07 11:20 | 48.63896 | 2.61364 | 35099 ft | 456 kts | 135° |
| 2026-05-07 11:21 | 48.59526 | 2.68297 | 35095 ft | 456 kts | 131° |
| 2026-05-07 11:21 | 48.56222 | 2.76461 | 35096 ft | 459 kts | 112° |
| 2026-05-07 11:22 | 48.54883 | 2.85853 | 35076 ft | 460 kts | 93° |
| 2026-05-07 11:22 | 48.54573 | 2.95502 | 35070 ft | 461 kts | 93° |
| 2026-05-07 11:23 | 48.54235 | 3.05166 | 35074 ft | 461 kts | 93° |
| 2026-05-07 11:23 | 48.53897 | 3.14843 | 35072 ft | 462 kts | 93° |
| 2026-05-07 11:24 | 48.53555 | 3.24512 | 35068 ft | 462 kts | 94° |
| 2026-05-07 11:24 | 48.53197 | 3.34193 | 35069 ft | 462 kts | 94° |
| 2026-05-07 11:25 | 48.52839 | 3.43854 | 35071 ft | 461 kts | 94° |
| 2026-05-07 11:25 | 48.52468 | 3.53512 | 35067 ft | 461 kts | 93° |
| 2026-05-07 11:26 | 48.52092 | 3.63173 | 35067 ft | 462 kts | 94° |
| 2026-05-07 11:26 | 48.51713 | 3.72772 | 35071 ft | 462 kts | 94° |
| 2026-05-07 11:27 | 48.51318 | 3.82439 | 35082 ft | 462 kts | 94° |
| 2026-05-07 11:27 | 48.50913 | 3.92105 | 35086 ft | 462 kts | 94° |
| 2026-05-07 11:28 | 48.50416 | 4.01768 | 35087 ft | 462 kts | 99° |
| 2026-05-07 11:28 | 48.48864 | 4.11149 | 35089 ft | 462 kts | 106° |
| 2026-05-07 11:29 | 48.47155 | 4.20485 | 35094 ft | 462 kts | 106° |
| 2026-05-07 11:29 | 48.45455 | 4.29818 | 35093 ft | 462 kts | 106° |
| 2026-05-07 11:30 | 48.43749 | 4.39144 | 35081 ft | 462 kts | 106° |
| 2026-05-07 11:30 | 48.42030 | 4.48465 | 35079 ft | 462 kts | 106° |
| 2026-05-07 11:31 | 48.40294 | 4.57786 | 35078 ft | 462 kts | 106° |
| 2026-05-07 11:31 | 48.38550 | 4.67093 | 35079 ft | 463 kts | 106° |
| 2026-05-07 11:32 | 48.35927 | 4.81065 | 35086 ft | 463 kts | 106° |
| 2026-05-07 11:33 | 48.34168 | 4.90370 | 35082 ft | 463 kts | 106° |
| 2026-05-07 11:33 | 48.32391 | 4.99657 | 35067 ft | 463 kts | 106° |
| 2026-05-07 11:34 | 48.30610 | 5.08959 | 35068 ft | 463 kts | 106° |
| 2026-05-07 11:34 | 48.28824 | 5.18248 | 35068 ft | 463 kts | 107° |
| 2026-05-07 11:35 | 48.26982 | 5.27449 | 35061 ft | 463 kts | 107° |
| 2026-05-07 11:35 | 48.25096 | 5.36695 | 35060 ft | 464 kts | 107° |
| 2026-05-07 11:36 | 48.23223 | 5.45951 | 35061 ft | 464 kts | 107° |
| 2026-05-07 11:36 | 48.21356 | 5.55213 | 35057 ft | 464 kts | 107° |
| 2026-05-07 11:37 | 48.19471 | 5.64466 | 35063 ft | 464 kts | 108° |
| 2026-05-07 11:37 | 48.17574 | 5.73715 | 35064 ft | 464 kts | 108° |
| 2026-05-07 11:38 | 48.15663 | 5.82959 | 35068 ft | 465 kts | 108° |
| 2026-05-07 11:38 | 48.13750 | 5.92193 | 35066 ft | 464 kts | 108° |
| 2026-05-07 11:39 | 48.11833 | 6.01426 | 35066 ft | 464 kts | 108° |
| 2026-05-07 11:39 | 48.09908 | 6.10650 | 35062 ft | 464 kts | 108° |
| 2026-05-07 11:40 | 48.07975 | 6.19871 | 35065 ft | 465 kts | 108° |
| 2026-05-07 11:40 | 48.06036 | 6.29083 | 35064 ft | 465 kts | 108° |
| 2026-05-07 11:41 | 48.04082 | 6.38289 | 35057 ft | 465 kts | 108° |
| 2026-05-07 11:41 | 48.02120 | 6.47501 | 35055 ft | 466 kts | 108° |
| 2026-05-07 11:42 | 48.00144 | 6.56723 | 35055 ft | 466 kts | 108° |
| 2026-05-07 11:42 | 47.98160 | 6.65945 | 35057 ft | 467 kts | 108° |
| 2026-05-07 11:43 | 47.95977 | 6.75061 | 35059 ft | 466 kts | 112° |
| 2026-05-07 11:43 | 47.93489 | 6.83998 | 35056 ft | 467 kts | 114° |
| 2026-05-07 11:44 | 47.90953 | 6.92909 | 35059 ft | 467 kts | 114° |
| 2026-05-07 11:44 | 47.88482 | 7.01863 | 35062 ft | 468 kts | 113° |
| 2026-05-07 11:45 | 47.86046 | 7.10852 | 35065 ft | 468 kts | 113° |
| 2026-05-07 11:45 | 47.83617 | 7.19762 | 35060 ft | 467 kts | 113° |
| 2026-05-07 11:46 | 47.81129 | 7.28763 | 35054 ft | 467 kts | 114° |
| 2026-05-07 11:46 | 47.78658 | 7.37641 | 35054 ft | 468 kts | 114° |
| 2026-05-07 11:47 | 47.76110 | 7.46531 | 35050 ft | 467 kts | 119° |
| 2026-05-07 11:47 | 47.72321 | 7.54141 | 35054 ft | 462 kts | 139° |
| 2026-05-07 11:48 | 47.67153 | 7.59526 | 35049 ft | 456 kts | 157° |
| 2026-05-07 11:48 | 47.61429 | 7.63580 | 35050 ft | 456 kts | 157° |
| 2026-05-07 11:49 | 47.55690 | 7.67614 | 35055 ft | 457 kts | 157° |
| 2026-05-07 11:49 | 47.49941 | 7.71619 | 35044 ft | 457 kts | 158° |
| 2026-05-07 11:50 | 47.44179 | 7.75635 | 35048 ft | 458 kts | 158° |
| 2026-05-07 11:50 | 47.38520 | 7.79587 | 35049 ft | 458 kts | 157° |
| 2026-05-07 11:51 | 47.32752 | 7.83611 | 35051 ft | 459 kts | 158° |
| 2026-05-07 11:51 | 47.26976 | 7.87623 | 35038 ft | 459 kts | 158° |
| 2026-05-07 11:52 | 47.21198 | 7.91620 | 35039 ft | 459 kts | 158° |
| 2026-05-07 11:52 | 47.15408 | 7.95611 | 35050 ft | 460 kts | 158° |
| 2026-05-07 11:53 | 47.09617 | 7.99602 | 35031 ft | 460 kts | 158° |
| 2026-05-07 11:53 | 47.03829 | 8.03584 | 35032 ft | 460 kts | 158° |
| 2026-05-07 11:54 | 46.98032 | 8.07562 | 35059 ft | 460 kts | 158° |
| 2026-05-07 11:54 | 46.92232 | 8.11536 | 35065 ft | 460 kts | 158° |
| 2026-05-07 11:55 | 46.86427 | 8.15495 | 35048 ft | 460 kts | 159° |
| 2026-05-07 11:55 | 46.80616 | 8.19441 | 35032 ft | 461 kts | 159° |
| 2026-05-07 11:56 | 46.74806 | 8.23387 | 35035 ft | 461 kts | 159° |
| 2026-05-07 11:56 | 46.68996 | 8.27328 | 35035 ft | 460 kts | 159° |
| 2026-05-07 11:57 | 46.63226 | 8.31233 | 35023 ft | 461 kts | 159° |
| 2026-05-07 11:57 | 46.57411 | 8.35155 | 35020 ft | 461 kts | 159° |
| 2026-05-07 11:58 | 46.51597 | 8.39064 | 35014 ft | 461 kts | 159° |
| 2026-05-07 11:58 | 46.45778 | 8.42961 | 35006 ft | 461 kts | 159° |
| 2026-05-07 11:59 | 46.39947 | 8.46859 | 35006 ft | 461 kts | 159° |
| 2026-05-07 11:59 | 46.34122 | 8.50753 | 35021 ft | 461 kts | 159° |
| 2026-05-07 12:00 | 46.28299 | 8.54643 | 35023 ft | 461 kts | 159° |
| 2026-05-07 12:00 | 46.22475 | 8.58523 | 35005 ft | 461 kts | 160° |
| 2026-05-07 12:01 | 46.16646 | 8.62383 | 35011 ft | 461 kts | 160° |
| 2026-05-07 12:01 | 46.10833 | 8.66224 | 35011 ft | 460 kts | 159° |
| 2026-05-07 12:02 | 46.05105 | 8.70394 | 35011 ft | 462 kts | 155° |
| 2026-05-07 12:02 | 45.99509 | 8.74925 | 34996 ft | 463 kts | 155° |
| 2026-05-07 12:03 | 45.93893 | 8.79468 | 35005 ft | 463 kts | 156° |
| 2026-05-07 12:03 | 45.88244 | 8.83897 | 35007 ft | 463 kts | 156° |
| 2026-05-07 12:04 | 45.82576 | 8.88265 | 35011 ft | 463 kts | 156° |
| 2026-05-07 12:04 | 45.76903 | 8.92637 | 35003 ft | 463 kts | 157° |
| 2026-05-07 12:05 | 45.72189 | 8.96277 | 35005 ft | 463 kts | 157° |
| 2026-05-07 12:05 | 45.66543 | 9.00724 | 35005 ft | 466 kts | 152° |
| 2026-05-07 12:06 | 45.61606 | 9.06859 | 35014 ft | 476 kts | 136° |
| 2026-05-07 12:06 | 45.57155 | 9.13886 | 34992 ft | 477 kts | 136° |
| 2026-05-07 12:07 | 45.52688 | 9.20913 | 34998 ft | 478 kts | 137° |
| 2026-05-07 12:07 | 45.48203 | 9.27922 | 35003 ft | 479 kts | 137° |
| 2026-05-07 12:08 | 45.43707 | 9.34921 | 35006 ft | 479 kts | 137° |
| 2026-05-07 12:08 | 45.39213 | 9.41907 | 35076 ft | 479 kts | 137° |
| 2026-05-07 12:09 | 45.34712 | 9.48887 | 35048 ft | 479 kts | 138° |
| 2026-05-07 12:09 | 45.30213 | 9.55861 | 35030 ft | 479 kts | 138° |
| 2026-05-07 12:10 | 45.25710 | 9.62834 | 35011 ft | 479 kts | 138° |
| 2026-05-07 12:10 | 45.21203 | 9.69784 | 34981 ft | 479 kts | 138° |
| 2026-05-07 12:11 | 45.16687 | 9.76729 | 34993 ft | 479 kts | 138° |
| 2026-05-07 12:11 | 45.12167 | 9.83679 | 34972 ft | 480 kts | 139° |
| 2026-05-07 12:12 | 45.07673 | 9.90582 | 34988 ft | 480 kts | 139° |
| 2026-05-07 12:12 | 45.02698 | 9.96579 | 34991 ft | 460 kts | 160° |
| 2026-05-07 12:12 | 44.99767 | 9.98160 | 34978 ft | 446 kts | 174° |
| 2026-05-07 12:13 | 44.96737 | 9.98766 | 34905 ft | 437 kts | 182° |
| 2026-05-07 12:13 | 44.93710 | 9.99117 | 34642 ft | 436 kts | 183° |
| 2026-05-07 12:13 | 44.90691 | 9.99450 | 34409 ft | 436 kts | 184° |
| 2026-05-07 12:13 | 44.87665 | 9.99776 | 34176 ft | 436 kts | 184° |
| 2026-05-07 12:14 | 44.84642 | 10.00105 | 33940 ft | 436 kts | 184° |
| 2026-05-07 12:14 | 44.81613 | 10.00441 | 33680 ft | 437 kts | 184° |
| 2026-05-07 12:14 | 44.78584 | 10.00783 | 33409 ft | 437 kts | 184° |
| 2026-05-07 12:14 | 44.75552 | 10.01126 | 33138 ft | 437 kts | 184° |
| 2026-05-07 12:15 | 44.72517 | 10.01467 | 32830 ft | 438 kts | 184° |
| 2026-05-07 12:15 | 44.69481 | 10.01805 | 32527 ft | 438 kts | 184° |
| 2026-05-07 12:15 | 44.66436 | 10.02142 | 31730 ft | 440 kts | 183° |
| 2026-05-07 12:15 | 44.63407 | 10.02485 | 31279 ft | 433 kts | 183° |
| 2026-05-07 12:16 | 44.60422 | 10.02829 | 30728 ft | 429 kts | 183° |
| 2026-05-07 12:16 | 44.57463 | 10.03171 | 30199 ft | 425 kts | 183° |
| 2026-05-07 12:16 | 44.54524 | 10.03507 | 29583 ft | 422 kts | 183° |
| 2026-05-07 12:16 | 44.51621 | 10.03835 | 29080 ft | 416 kts | 183° |
| 2026-05-07 12:17 | 44.48751 | 10.04154 | 28545 ft | 411 kts | 183° |
| 2026-05-07 12:17 | 44.45960 | 10.04462 | 28034 ft | 405 kts | 183° |
| 2026-05-07 12:17 | 44.43166 | 10.04769 | 27527 ft | 401 kts | 182° |
| 2026-05-07 12:17 | 44.40398 | 10.05072 | 27017 ft | 398 kts | 182° |
| 2026-05-07 12:18 | 44.37640 | 10.05373 | 26523 ft | 396 kts | 182° |
| 2026-05-07 12:18 | 44.34899 | 10.05672 | 26026 ft | 394 kts | 182° |
| 2026-05-07 12:18 | 44.32174 | 10.05972 | 25543 ft | 392 kts | 182° |
| 2026-05-07 12:18 | 44.29457 | 10.06274 | 25067 ft | 390 kts | 181° |
| 2026-05-07 12:19 | 44.26761 | 10.06571 | 24606 ft | 388 kts | 182° |
| 2026-05-07 12:19 | 44.24075 | 10.06865 | 24149 ft | 387 kts | 181° |
| 2026-05-07 12:19 | 44.21399 | 10.07401 | 23699 ft | 392 kts | 173° |
| 2026-05-07 12:19 | 44.18748 | 10.08338 | 23183 ft | 392 kts | 171° |
| 2026-05-07 12:20 | 44.16121 | 10.09281 | 22714 ft | 388 kts | 171° |
| 2026-05-07 12:20 | 44.13520 | 10.10218 | 22282 ft | 385 kts | 171° |
| 2026-05-07 12:20 | 44.10935 | 10.11147 | 21826 ft | 382 kts | 171° |
| 2026-05-07 12:20 | 44.08354 | 10.12012 | 21136 ft | 382 kts | 174° |
| 2026-05-07 12:21 | 44.05733 | 10.12683 | 20092 ft | 382 kts | 175° |
| 2026-05-07 12:21 | 44.03109 | 10.13268 | 19101 ft | 381 kts | 175° |
| 2026-05-07 12:21 | 44.00501 | 10.13804 | 18116 ft | 379 kts | 175° |
| 2026-05-07 12:21 | 43.97902 | 10.14324 | 17043 ft | 376 kts | 175° |
| 2026-05-07 12:22 | 43.95324 | 10.14846 | 16005 ft | 372 kts | 174° |
| 2026-05-07 12:22 | 43.92779 | 10.15378 | 15029 ft | 368 kts | 174° |
| 2026-05-07 12:22 | 43.90264 | 10.15916 | 14092 ft | 363 kts | 174° |
| 2026-05-07 12:22 | 43.87779 | 10.16455 | 13099 ft | 358 kts | 174° |
| 2026-05-07 12:23 | 43.85367 | 10.16986 | 12143 ft | 353 kts | 173° |
| 2026-05-07 12:23 | 43.82981 | 10.17512 | 11559 ft | 343 kts | 174° |
| 2026-05-07 12:23 | 43.80634 | 10.18025 | 11077 ft | 340 kts | 174° |
| 2026-05-07 12:23 | 43.78340 | 10.18522 | 10936 ft | 325 kts | 174° |
| 2026-05-07 12:24 | 43.76170 | 10.18994 | 10831 ft | 300 kts | 174° |
| 2026-05-07 12:24 | 43.74143 | 10.19433 | 10705 ft | 293 kts | 174° |
| 2026-05-07 12:24 | 43.72161 | 10.19858 | 10570 ft | 291 kts | 174° |
| 2026-05-07 12:24 | 43.70143 | 10.20292 | 10437 ft | 285 kts | 174° |
| 2026-05-07 12:25 | 43.68271 | 10.20547 | 10310 ft | 262 kts | 186° |
| 2026-05-07 12:25 | 43.66540 | 10.20045 | 10169 ft | 253 kts | 204° |
| 2026-05-07 12:25 | 43.65014 | 10.18793 | 9763 ft | 253 kts | 219° |
| 2026-05-07 12:25 | 43.63600 | 10.17326 | 9389 ft | 254 kts | 218° |
| 2026-05-07 12:26 | 43.62200 | 10.15890 | 9116 ft | 254 kts | 218° |
| 2026-05-07 12:26 | 43.60767 | 10.14425 | 8908 ft | 252 kts | 218° |
| 2026-05-07 12:26 | 43.59360 | 10.12983 | 8620 ft | 252 kts | 218° |
| 2026-05-07 12:26 | 43.57982 | 10.11570 | 8298 ft | 248 kts | 218° |
| 2026-05-07 12:27 | 43.56595 | 10.10149 | 7759 ft | 248 kts | 218° |
| 2026-05-07 12:27 | 43.55225 | 10.08749 | 7370 ft | 242 kts | 218° |
| 2026-05-07 12:27 | 43.53882 | 10.07380 | 7040 ft | 239 kts | 218° |
| 2026-05-07 12:27 | 43.52553 | 10.06025 | 6816 ft | 238 kts | 218° |
| 2026-05-07 12:28 | 43.51219 | 10.04666 | 6632 ft | 238 kts | 218° |
| 2026-05-07 12:28 | 43.49893 | 10.03315 | 6431 ft | 237 kts | 218° |
| 2026-05-07 12:28 | 43.48517 | 10.02088 | 6222 ft | 237 kts | 202° |
| 2026-05-07 12:28 | 43.46885 | 10.01958 | 6028 ft | 241 kts | 165° |
| 2026-05-07 12:29 | 43.45506 | 10.03240 | 5810 ft | 245 kts | 130° |
| 2026-05-07 12:29 | 43.44478 | 10.05110 | 5594 ft | 245 kts | 128° |
| 2026-05-07 12:29 | 43.43469 | 10.06997 | 5366 ft | 244 kts | 128° |
| 2026-05-07 12:29 | 43.42512 | 10.08917 | 5159 ft | 243 kts | 116° |
| 2026-05-07 12:30 | 43.42242 | 10.11174 | 4973 ft | 243 kts | 81° |
| 2026-05-07 12:30 | 43.42944 | 10.13250 | 4846 ft | 242 kts | 45° |
| 2026-05-07 12:30 | 43.44245 | 10.14717 | 4721 ft | 242 kts | 35° |
| 2026-05-07 12:30 | 43.45610 | 10.16075 | 4600 ft | 242 kts | 35° |
| 2026-05-07 12:31 | 43.46961 | 10.17441 | 4463 ft | 238 kts | 36° |
| 2026-05-07 12:31 | 43.48265 | 10.18774 | 4330 ft | 229 kts | 36° |
| 2026-05-07 12:31 | 43.49520 | 10.20058 | 4222 ft | 219 kts | 36° |
| 2026-05-07 12:31 | 43.50715 | 10.21281 | 4065 ft | 210 kts | 36° |
| 2026-05-07 12:32 | 43.51878 | 10.22471 | 3784 ft | 207 kts | 35° |
| 2026-05-07 12:32 | 43.53023 | 10.23644 | 3505 ft | 203 kts | 36° |
| 2026-05-07 12:32 | 43.54146 | 10.24794 | 3242 ft | 199 kts | 35° |
| 2026-05-07 12:32 | 43.55251 | 10.25926 | 2970 ft | 196 kts | 35° |
| 2026-05-07 12:33 | 43.57400 | 10.28132 | 2464 ft | 190 kts | 34° |
| 2026-05-07 12:33 | 43.58451 | 10.29210 | 2210 ft | 186 kts | 35° |
| 2026-05-07 12:33 | 43.59465 | 10.30253 | 1963 ft | 177 kts | 34° |
| 2026-05-07 12:34 | 43.60441 | 10.31255 | 1761 ft | 173 kts | 34° |
| 2026-05-07 12:34 | 43.61404 | 10.32245 | 1514 ft | 171 kts | 34° |
| 2026-05-07 12:34 | 43.62357 | 10.33224 | 1277 ft | 170 kts | 33° |
| 2026-05-07 12:34 | 43.63259 | 10.34154 | 1052 ft | 155 kts | 33° |
| 2026-05-07 12:35 | 43.64106 | 10.35028 | 847 ft | 151 kts | 33° |
| 2026-05-07 12:35 | 43.64933 | 10.35884 | 655 ft | 146 kts | 33° |
| 2026-05-07 12:35 | 43.65749 | 10.36718 | 477 ft | 145 kts | 35° |
| 2026-05-07 12:35 | 43.66554 | 10.37550 | 294 ft | 145 kts | 34° |
| 2026-05-07 12:36 | 43.67365 | 10.38390 | 68 ft | 145 kts | 34° |
| 2026-05-07 12:36 | 43.68129 | 10.39168 | 16 ft | 117 kts | 37° |
| 2026-05-07 12:36 | 43.68641 | 10.39699 | 18 ft | 67 kts | 37° |
| 2026-05-07 12:36 | 43.68957 | 10.40025 | 18 ft | 54 kts | 37° |
| 2026-05-07 12:37 | 43.69179 | 10.40254 | 20 ft | 19 kts | 37° |
| 2026-05-07 12:37 | 43.69265 | 10.40308 | 20 ft | 13 kts | 340° |
| 2026-05-07 12:37 | 43.69329 | 10.40204 | 19 ft | 16 kts | 307° |
| 2026-05-07 12:37 | 43.69395 | 10.40107 | 23 ft | 14 kts | 335° |
| 2026-05-07 12:38 | 43.69507 | 10.40085 | 16 ft | 18 kts | 351° |
| 2026-05-07 12:38 | 43.69591 | 10.40066 | 15 ft | 6 kts | 352° |
| 2026-05-07 12:38 | 43.69598 | 10.40065 | 15 ft | 2 kts | 352° |
| 2026-05-07 12:38 | 43.69616 | 10.40062 | 15 ft | 0 kts | 353° |
| 2026-05-07 12:39 | 43.69628 | 10.40060 | 16 ft | 4 kts | 354° |
| 2026-05-07 12:39 | 43.69661 | 10.40048 | 15 ft | 6 kts | 337° |
| 2026-05-07 12:39 | 43.69686 | 10.39990 | 18 ft | 9 kts | 280° |
| 2026-05-07 12:39 | 43.69712 | 10.39964 | 15 ft | 6 kts | 14° |
| 2026-05-07 12:40 | 43.69750 | 10.39972 | 15 ft | 5 kts | 8° |
| 2026-05-07 12:40 | 43.69756 | 10.39973 | 15 ft | 1 kts | 9° |
| 2026-05-07 12:40 | 43.69766 | 10.39975 | 15 ft | 1 kts | 9° |
| 2026-05-07 12:40 | 43.69767 | 10.39976 | 15 ft | 0 kts | 9° |